sensor_id;sensor_type;location;lat;lon;timestamp;P1;durP1;ratioP1;P2;durP2;ratioP2
18076;SDS011;9165;45.714;11.362;2022-12-16T00:00:10;19.57;;;14.43;;
18076;SDS011;9165;45.714;11.362;2022-12-16T00:02:37;16.63;;;12.63;;
18076;SDS011;9165;45.714;11.362;2022-12-16T00:05:04;18.60;;;12.63;;
18076;SDS011;9165;45.714;11.362;2022-12-16T00:07:31;15.77;;;12.57;;
18076;SDS011;9165;45.714;11.362;2022-12-16T00:09:58;18.00;;;13.17;;
18076;SDS011;9165;45.714;11.362;2022-12-16T00:12:24;17.80;;;12.60;;
18076;SDS011;9165;45.714;11.362;2022-12-16T00:14:52;21.10;;;11.90;;
18076;SDS011;9165;45.714;11.362;2022-12-16T00:17:19;11.00;;;7.83;;
18076;SDS011;9165;45.714;11.362;2022-12-16T00:19:46;6.07;;;4.43;;
18076;SDS011;9165;45.714;11.362;2022-12-16T00:22:12;6.07;;;4.27;;
18076;SDS011;9165;45.714;11.362;2022-12-16T00:24:39;3.57;;;2.87;;
18076;SDS011;9165;45.714;11.362;2022-12-16T00:27:05;3.30;;;2.67;;
18076;SDS011;9165;45.714;11.362;2022-12-16T00:29:32;2.63;;;1.97;;
18076;SDS011;9165;45.714;11.362;2022-12-16T00:32:00;2.10;;;1.90;;
18076;SDS011;9165;45.714;11.362;2022-12-16T00:34:27;2.37;;;1.83;;
18076;SDS011;9165;45.714;11.362;2022-12-16T00:36:54;2.03;;;1.83;;
18076;SDS011;9165;45.714;11.362;2022-12-16T00:39:20;2.47;;;2.10;;
18076;SDS011;9165;45.714;11.362;2022-12-16T00:41:47;3.53;;;2.03;;
18076;SDS011;9165;45.714;11.362;2022-12-16T00:44:15;2.63;;;1.90;;
18076;SDS011;9165;45.714;11.362;2022-12-16T00:46:41;4.30;;;2.27;;
18076;SDS011;9165;45.714;11.362;2022-12-16T00:49:10;14.20;;;9.80;;
18076;SDS011;9165;45.714;11.362;2022-12-16T00:51:36;20.10;;;11.90;;
18076;SDS011;9165;45.714;11.362;2022-12-16T00:54:03;22.07;;;13.97;;
18076;SDS011;9165;45.714;11.362;2022-12-16T00:56:30;14.97;;;11.33;;
18076;SDS011;9165;45.714;11.362;2022-12-16T00:58:56;15.57;;;11.07;;
18076;SDS011;9165;45.714;11.362;2022-12-16T01:01:23;20.77;;;13.27;;
18076;SDS011;9165;45.714;11.362;2022-12-16T01:03:49;20.10;;;12.77;;
18076;SDS011;9165;45.714;11.362;2022-12-16T01:06:17;21.30;;;13.63;;
18076;SDS011;9165;45.714;11.362;2022-12-16T01:08:44;20.77;;;14.07;;
18076;SDS011;9165;45.714;11.362;2022-12-16T01:11:12;18.13;;;13.23;;
18076;SDS011;9165;45.714;11.362;2022-12-16T01:13:39;19.53;;;14.03;;
18076;SDS011;9165;45.714;11.362;2022-12-16T01:16:06;22.90;;;15.47;;
18076;SDS011;9165;45.714;11.362;2022-12-16T01:18:32;24.80;;;15.90;;
18076;SDS011;9165;45.714;11.362;2022-12-16T01:21:01;21.97;;;15.63;;
18076;SDS011;9165;45.714;11.362;2022-12-16T01:23:29;24.27;;;16.50;;
18076;SDS011;9165;45.714;11.362;2022-12-16T01:25:56;23.53;;;16.87;;
18076;SDS011;9165;45.714;11.362;2022-12-16T01:28:23;25.80;;;15.80;;
18076;SDS011;9165;45.714;11.362;2022-12-16T01:30:53;26.87;;;16.00;;
18076;SDS011;9165;45.714;11.362;2022-12-16T01:33:21;21.17;;;15.07;;
18076;SDS011;9165;45.714;11.362;2022-12-16T01:35:47;22.03;;;15.03;;
18076;SDS011;9165;45.714;11.362;2022-12-16T01:38:14;26.10;;;15.93;;
18076;SDS011;9165;45.714;11.362;2022-12-16T01:40:42;21.53;;;14.67;;
18076;SDS011;9165;45.714;11.362;2022-12-16T01:43:09;24.13;;;15.40;;
18076;SDS011;9165;45.714;11.362;2022-12-16T01:45:37;20.20;;;13.93;;
18076;SDS011;9165;45.714;11.362;2022-12-16T01:48:05;20.43;;;14.00;;
18076;SDS011;9165;45.714;11.362;2022-12-16T01:50:37;24.37;;;15.00;;
18076;SDS011;9165;45.714;11.362;2022-12-16T01:53:04;21.07;;;14.97;;
18076;SDS011;9165;45.714;11.362;2022-12-16T01:55:32;20.70;;;13.40;;
18076;SDS011;9165;45.714;11.362;2022-12-16T01:58:04;21.60;;;13.70;;
18076;SDS011;9165;45.714;11.362;2022-12-16T02:00:33;21.27;;;13.50;;
18076;SDS011;9165;45.714;11.362;2022-12-16T02:03:00;25.03;;;13.60;;
18076;SDS011;9165;45.714;11.362;2022-12-16T02:05:27;24.00;;;14.50;;
18076;SDS011;9165;45.714;11.362;2022-12-16T02:07:59;22.27;;;14.13;;
18076;SDS011;9165;45.714;11.362;2022-12-16T02:10:30;24.07;;;13.80;;
18076;SDS011;9165;45.714;11.362;2022-12-16T02:13:02;21.37;;;15.10;;
18076;SDS011;9165;45.714;11.362;2022-12-16T02:15:35;23.47;;;15.17;;
18076;SDS011;9165;45.714;11.362;2022-12-16T02:18:08;21.33;;;15.20;;
18076;SDS011;9165;45.714;11.362;2022-12-16T02:20:45;21.10;;;13.60;;
18076;SDS011;9165;45.714;11.362;2022-12-16T02:26:07;24.47;;;14.63;;
18076;SDS011;9165;45.714;11.362;2022-12-16T02:28:46;25.20;;;14.43;;
18076;SDS011;9165;45.714;11.362;2022-12-16T02:31:21;24.00;;;14.73;;
18076;SDS011;9165;45.714;11.362;2022-12-16T02:33:57;27.93;;;15.17;;
18076;SDS011;9165;45.714;11.362;2022-12-16T02:36:31;20.50;;;13.63;;
18076;SDS011;9165;45.714;11.362;2022-12-16T02:39:03;20.00;;;13.70;;
18076;SDS011;9165;45.714;11.362;2022-12-16T02:41:36;19.70;;;13.17;;
18076;SDS011;9165;45.714;11.362;2022-12-16T02:44:05;23.77;;;14.03;;
18076;SDS011;9165;45.714;11.362;2022-12-16T02:46:37;20.83;;;13.67;;
18076;SDS011;9165;45.714;11.362;2022-12-16T02:49:05;22.17;;;13.40;;
18076;SDS011;9165;45.714;11.362;2022-12-16T02:51:32;20.80;;;14.10;;
18076;SDS011;9165;45.714;11.362;2022-12-16T02:54:00;22.87;;;14.07;;
18076;SDS011;9165;45.714;11.362;2022-12-16T02:56:29;21.00;;;14.50;;
18076;SDS011;9165;45.714;11.362;2022-12-16T02:59:03;22.83;;;13.93;;
18076;SDS011;9165;45.714;11.362;2022-12-16T03:01:35;24.80;;;14.60;;
18076;SDS011;9165;45.714;11.362;2022-12-16T03:04:07;25.33;;;14.70;;
18076;SDS011;9165;45.714;11.362;2022-12-16T03:06:35;24.37;;;14.43;;
18076;SDS011;9165;45.714;11.362;2022-12-16T03:09:05;25.90;;;14.47;;
18076;SDS011;9165;45.714;11.362;2022-12-16T03:11:32;19.77;;;13.33;;
18076;SDS011;9165;45.714;11.362;2022-12-16T03:13:59;22.63;;;14.77;;
18076;SDS011;9165;45.714;11.362;2022-12-16T03:16:28;22.27;;;14.97;;
18076;SDS011;9165;45.714;11.362;2022-12-16T03:18:57;22.30;;;14.37;;
18076;SDS011;9165;45.714;11.362;2022-12-16T03:21:26;21.20;;;13.23;;
18076;SDS011;9165;45.714;11.362;2022-12-16T03:23:56;21.57;;;13.37;;
18076;SDS011;9165;45.714;11.362;2022-12-16T03:26:24;20.43;;;13.63;;
18076;SDS011;9165;45.714;11.362;2022-12-16T03:28:53;22.13;;;13.90;;
18076;SDS011;9165;45.714;11.362;2022-12-16T03:31:25;26.43;;;16.33;;
18076;SDS011;9165;45.714;11.362;2022-12-16T03:33:54;30.27;;;19.17;;
18076;SDS011;9165;45.714;11.362;2022-12-16T03:36:24;28.30;;;18.10;;
18076;SDS011;9165;45.714;11.362;2022-12-16T03:38:51;28.63;;;17.97;;
18076;SDS011;9165;45.714;11.362;2022-12-16T03:41:19;31.10;;;18.03;;
18076;SDS011;9165;45.714;11.362;2022-12-16T03:43:47;29.70;;;17.47;;
18076;SDS011;9165;45.714;11.362;2022-12-16T03:46:14;28.70;;;16.03;;
18076;SDS011;9165;45.714;11.362;2022-12-16T03:48:44;26.63;;;15.60;;
18076;SDS011;9165;45.714;11.362;2022-12-16T03:51:11;29.90;;;17.37;;
18076;SDS011;9165;45.714;11.362;2022-12-16T03:53:39;28.63;;;16.00;;
18076;SDS011;9165;45.714;11.362;2022-12-16T03:56:06;27.37;;;16.17;;
18076;SDS011;9165;45.714;11.362;2022-12-16T03:58:33;32.37;;;16.07;;
18076;SDS011;9165;45.714;11.362;2022-12-16T04:01:02;25.07;;;14.80;;
18076;SDS011;9165;45.714;11.362;2022-12-16T04:03:28;31.53;;;15.50;;
18076;SDS011;9165;45.714;11.362;2022-12-16T04:05:55;30.33;;;14.63;;
18076;SDS011;9165;45.714;11.362;2022-12-16T04:08:21;33.13;;;14.20;;
18076;SDS011;9165;45.714;11.362;2022-12-16T04:10:51;24.70;;;14.00;;
18076;SDS011;9165;45.714;11.362;2022-12-16T04:13:35;24.50;;;13.57;;
18076;SDS011;9165;45.714;11.362;2022-12-16T04:16:19;24.10;;;14.10;;
18076;SDS011;9165;45.714;11.362;2022-12-16T04:19:02;24.77;;;13.93;;
18076;SDS011;9165;45.714;11.362;2022-12-16T04:21:46;25.10;;;13.67;;
18076;SDS011;9165;45.714;11.362;2022-12-16T04:24:30;24.63;;;13.70;;
18076;SDS011;9165;45.714;11.362;2022-12-16T04:26:59;26.63;;;13.33;;
18076;SDS011;9165;45.714;11.362;2022-12-16T04:29:43;23.93;;;13.07;;
18076;SDS011;9165;45.714;11.362;2022-12-16T04:32:27;23.57;;;13.73;;
18076;SDS011;9165;45.714;11.362;2022-12-16T04:35:14;30.17;;;13.87;;
18076;SDS011;9165;45.714;11.362;2022-12-16T04:38:00;32.07;;;16.37;;
18076;SDS011;9165;45.714;11.362;2022-12-16T04:40:44;28.53;;;15.07;;
18076;SDS011;9165;45.714;11.362;2022-12-16T04:43:30;35.83;;;14.47;;
18076;SDS011;9165;45.714;11.362;2022-12-16T04:46:14;31.20;;;14.00;;
18076;SDS011;9165;45.714;11.362;2022-12-16T04:48:58;27.33;;;13.43;;
18076;SDS011;9165;45.714;11.362;2022-12-16T04:51:42;23.03;;;12.97;;
18076;SDS011;9165;45.714;11.362;2022-12-16T04:54:26;20.73;;;12.03;;
18076;SDS011;9165;45.714;11.362;2022-12-16T04:57:10;23.27;;;11.43;;
18076;SDS011;9165;45.714;11.362;2022-12-16T04:59:55;18.60;;;10.77;;
18076;SDS011;9165;45.714;11.362;2022-12-16T05:02:39;23.37;;;12.50;;
18076;SDS011;9165;45.714;11.362;2022-12-16T05:05:23;19.33;;;11.50;;
18076;SDS011;9165;45.714;11.362;2022-12-16T05:08:06;19.63;;;11.27;;
18076;SDS011;9165;45.714;11.362;2022-12-16T05:10:50;19.47;;;9.97;;
18076;SDS011;9165;45.714;11.362;2022-12-16T05:13:34;18.13;;;10.33;;
18076;SDS011;9165;45.714;11.362;2022-12-16T05:16:20;17.73;;;10.83;;
18076;SDS011;9165;45.714;11.362;2022-12-16T05:19:04;18.23;;;9.50;;
18076;SDS011;9165;45.714;11.362;2022-12-16T05:21:47;17.30;;;8.90;;
18076;SDS011;9165;45.714;11.362;2022-12-16T05:24:32;16.13;;;10.10;;
18076;SDS011;9165;45.714;11.362;2022-12-16T05:27:15;19.57;;;9.77;;
18076;SDS011;9165;45.714;11.362;2022-12-16T05:29:59;15.43;;;8.70;;
18076;SDS011;9165;45.714;11.362;2022-12-16T05:32:59;12.13;;;7.93;;
18076;SDS011;9165;45.714;11.362;2022-12-16T05:35:58;17.33;;;8.47;;
18076;SDS011;9165;45.714;11.362;2022-12-16T05:38:42;16.27;;;9.00;;
18076;SDS011;9165;45.714;11.362;2022-12-16T05:41:26;17.00;;;9.57;;
18076;SDS011;9165;45.714;11.362;2022-12-16T05:44:10;12.73;;;7.93;;
18076;SDS011;9165;45.714;11.362;2022-12-16T05:46:54;13.57;;;7.40;;
18076;SDS011;9165;45.714;11.362;2022-12-16T05:49:39;11.43;;;7.27;;
18076;SDS011;9165;45.714;11.362;2022-12-16T05:52:24;10.30;;;6.87;;
18076;SDS011;9165;45.714;11.362;2022-12-16T05:55:07;9.87;;;7.37;;
18076;SDS011;9165;45.714;11.362;2022-12-16T05:57:51;12.07;;;7.90;;
18076;SDS011;9165;45.714;11.362;2022-12-16T06:00:35;13.20;;;7.77;;
18076;SDS011;9165;45.714;11.362;2022-12-16T06:03:20;13.23;;;7.10;;
18076;SDS011;9165;45.714;11.362;2022-12-16T06:06:05;12.07;;;7.27;;
18076;SDS011;9165;45.714;11.362;2022-12-16T06:08:50;12.80;;;7.63;;
18076;SDS011;9165;45.714;11.362;2022-12-16T06:11:33;12.33;;;7.03;;
18076;SDS011;9165;45.714;11.362;2022-12-16T06:14:17;12.03;;;7.23;;
18076;SDS011;9165;45.714;11.362;2022-12-16T06:17:01;11.07;;;6.90;;
18076;SDS011;9165;45.714;11.362;2022-12-16T06:19:48;10.50;;;7.57;;
18076;SDS011;9165;45.714;11.362;2022-12-16T06:22:34;14.47;;;8.53;;
18076;SDS011;9165;45.714;11.362;2022-12-16T06:25:18;15.57;;;9.20;;
18076;SDS011;9165;45.714;11.362;2022-12-16T06:28:02;15.87;;;9.97;;
18076;SDS011;9165;45.714;11.362;2022-12-16T06:30:46;14.87;;;8.90;;
18076;SDS011;9165;45.714;11.362;2022-12-16T06:33:42;14.57;;;9.40;;
18076;SDS011;9165;45.714;11.362;2022-12-16T06:36:26;14.43;;;8.57;;
18076;SDS011;9165;45.714;11.362;2022-12-16T06:39:11;15.87;;;10.17;;
18076;SDS011;9165;45.714;11.362;2022-12-16T06:41:55;15.57;;;8.93;;
18076;SDS011;9165;45.714;11.362;2022-12-16T06:44:39;18.27;;;10.77;;
18076;SDS011;9165;45.714;11.362;2022-12-16T06:47:23;19.90;;;11.87;;
18076;SDS011;9165;45.714;11.362;2022-12-16T06:50:07;21.97;;;13.70;;
18076;SDS011;9165;45.714;11.362;2022-12-16T06:53:02;30.20;;;15.20;;
18076;SDS011;9165;45.714;11.362;2022-12-16T06:55:48;25.37;;;14.40;;
18076;SDS011;9165;45.714;11.362;2022-12-16T06:58:31;27.70;;;14.27;;
18076;SDS011;9165;45.714;11.362;2022-12-16T07:01:15;27.60;;;15.03;;
18076;SDS011;9165;45.714;11.362;2022-12-16T07:03:59;25.60;;;14.07;;
18076;SDS011;9165;45.714;11.362;2022-12-16T07:06:43;26.03;;;15.03;;
18076;SDS011;9165;45.714;11.362;2022-12-16T07:09:27;25.43;;;13.80;;
18076;SDS011;9165;45.714;11.362;2022-12-16T07:12:23;27.17;;;14.90;;
18076;SDS011;9165;45.714;11.362;2022-12-16T07:15:13;33.70;;;16.00;;
18076;SDS011;9165;45.714;11.362;2022-12-16T07:17:57;31.33;;;15.77;;
18076;SDS011;9165;45.714;11.362;2022-12-16T07:20:41;34.10;;;16.27;;
18076;SDS011;9165;45.714;11.362;2022-12-16T07:23:25;35.53;;;16.27;;
18076;SDS011;9165;45.714;11.362;2022-12-16T07:26:09;28.00;;;15.73;;
18076;SDS011;9165;45.714;11.362;2022-12-16T07:28:54;32.33;;;17.10;;
18076;SDS011;9165;45.714;11.362;2022-12-16T07:31:38;31.90;;;16.73;;
18076;SDS011;9165;45.714;11.362;2022-12-16T07:34:22;32.33;;;15.80;;
18076;SDS011;9165;45.714;11.362;2022-12-16T07:37:06;29.97;;;16.47;;
18076;SDS011;9165;45.714;11.362;2022-12-16T07:39:50;33.13;;;17.53;;
18076;SDS011;9165;45.714;11.362;2022-12-16T07:42:34;30.47;;;16.67;;
18076;SDS011;9165;45.714;11.362;2022-12-16T07:45:19;31.57;;;16.67;;
18076;SDS011;9165;45.714;11.362;2022-12-16T07:48:03;31.07;;;15.90;;
18076;SDS011;9165;45.714;11.362;2022-12-16T07:50:47;30.17;;;16.97;;
18076;SDS011;9165;45.714;11.362;2022-12-16T07:53:31;28.10;;;15.73;;
18076;SDS011;9165;45.714;11.362;2022-12-16T07:56:15;34.83;;;17.93;;
18076;SDS011;9165;45.714;11.362;2022-12-16T07:58:59;29.97;;;16.23;;
18076;SDS011;9165;45.714;11.362;2022-12-16T08:01:44;30.47;;;16.23;;
18076;SDS011;9165;45.714;11.362;2022-12-16T08:04:28;25.23;;;14.47;;
18076;SDS011;9165;45.714;11.362;2022-12-16T08:07:12;26.43;;;15.50;;
18076;SDS011;9165;45.714;11.362;2022-12-16T08:09:56;28.13;;;15.47;;
18076;SDS011;9165;45.714;11.362;2022-12-16T08:12:46;25.73;;;15.30;;
18076;SDS011;9165;45.714;11.362;2022-12-16T08:15:30;27.30;;;14.93;;
18076;SDS011;9165;45.714;11.362;2022-12-16T08:18:16;26.37;;;13.70;;
18076;SDS011;9165;45.714;11.362;2022-12-16T08:21:00;26.47;;;14.93;;
18076;SDS011;9165;45.714;11.362;2022-12-16T08:23:43;30.03;;;16.53;;
18076;SDS011;9165;45.714;11.362;2022-12-16T08:26:27;28.57;;;15.97;;
18076;SDS011;9165;45.714;11.362;2022-12-16T08:29:11;25.63;;;16.07;;
18076;SDS011;9165;45.714;11.362;2022-12-16T08:31:55;23.10;;;13.67;;
18076;SDS011;9165;45.714;11.362;2022-12-16T08:34:40;24.87;;;15.23;;
18076;SDS011;9165;45.714;11.362;2022-12-16T08:37:24;26.77;;;14.93;;
18076;SDS011;9165;45.714;11.362;2022-12-16T08:40:09;20.17;;;14.13;;
18076;SDS011;9165;45.714;11.362;2022-12-16T08:42:54;25.83;;;14.17;;
18076;SDS011;9165;45.714;11.362;2022-12-16T08:45:38;21.33;;;13.10;;
18076;SDS011;9165;45.714;11.362;2022-12-16T08:48:31;22.57;;;14.23;;
18076;SDS011;9165;45.714;11.362;2022-12-16T08:51:18;25.43;;;15.30;;
18076;SDS011;9165;45.714;11.362;2022-12-16T08:54:05;27.50;;;15.83;;
18076;SDS011;9165;45.714;11.362;2022-12-16T08:56:49;29.67;;;16.97;;
18076;SDS011;9165;45.714;11.362;2022-12-16T08:59:33;26.17;;;16.90;;
18076;SDS011;9165;45.714;11.362;2022-12-16T09:02:17;31.03;;;18.90;;
18076;SDS011;9165;45.714;11.362;2022-12-16T09:05:01;29.73;;;18.97;;
18076;SDS011;9165;45.714;11.362;2022-12-16T09:07:46;33.50;;;21.13;;
18076;SDS011;9165;45.714;11.362;2022-12-16T09:10:30;31.97;;;20.40;;
18076;SDS011;9165;45.714;11.362;2022-12-16T09:13:15;31.63;;;20.17;;
18076;SDS011;9165;45.714;11.362;2022-12-16T09:15:59;32.23;;;20.30;;
18076;SDS011;9165;45.714;11.362;2022-12-16T09:18:43;28.67;;;18.83;;
18076;SDS011;9165;45.714;11.362;2022-12-16T09:21:30;28.20;;;18.63;;
18076;SDS011;9165;45.714;11.362;2022-12-16T09:24:16;28.40;;;17.60;;
18076;SDS011;9165;45.714;11.362;2022-12-16T09:27:00;22.57;;;14.93;;
18076;SDS011;9165;45.714;11.362;2022-12-16T09:29:44;22.17;;;15.80;;
18076;SDS011;9165;45.714;11.362;2022-12-16T09:32:28;21.53;;;17.37;;
18076;SDS011;9165;45.714;11.362;2022-12-16T09:35:12;227.07;;;59.90;;
18076;SDS011;9165;45.714;11.362;2022-12-16T09:37:56;20.57;;;16.47;;
18076;SDS011;9165;45.714;11.362;2022-12-16T09:40:44;23.77;;;18.83;;
18076;SDS011;9165;45.714;11.362;2022-12-16T09:43:35;21.37;;;16.23;;
18076;SDS011;9165;45.714;11.362;2022-12-16T09:46:23;18.73;;;14.97;;
18076;SDS011;9165;45.714;11.362;2022-12-16T09:49:12;22.57;;;16.43;;
18076;SDS011;9165;45.714;11.362;2022-12-16T09:51:58;23.63;;;16.30;;
18076;SDS011;9165;45.714;11.362;2022-12-16T09:54:43;28.07;;;16.57;;
18076;SDS011;9165;45.714;11.362;2022-12-16T09:57:26;26.83;;;18.53;;
18076;SDS011;9165;45.714;11.362;2022-12-16T10:00:18;33.63;;;20.50;;
18076;SDS011;9165;45.714;11.362;2022-12-16T10:03:03;30.97;;;20.53;;
18076;SDS011;9165;45.714;11.362;2022-12-16T10:05:55;27.37;;;19.17;;
18076;SDS011;9165;45.714;11.362;2022-12-16T10:08:43;30.70;;;18.80;;
18076;SDS011;9165;45.714;11.362;2022-12-16T10:11:32;29.20;;;20.27;;
18076;SDS011;9165;45.714;11.362;2022-12-16T10:14:20;32.00;;;20.67;;
18076;SDS011;9165;45.714;11.362;2022-12-16T10:17:09;27.73;;;17.53;;
18076;SDS011;9165;45.714;11.362;2022-12-16T10:19:56;32.27;;;19.73;;
18076;SDS011;9165;45.714;11.362;2022-12-16T10:22:44;28.60;;;19.07;;
18076;SDS011;9165;45.714;11.362;2022-12-16T10:25:40;26.37;;;18.30;;
18076;SDS011;9165;45.714;11.362;2022-12-16T10:28:29;27.13;;;18.47;;
18076;SDS011;9165;45.714;11.362;2022-12-16T10:31:18;25.73;;;17.50;;
18076;SDS011;9165;45.714;11.362;2022-12-16T10:34:14;22.77;;;16.57;;
18076;SDS011;9165;45.714;11.362;2022-12-16T10:37:00;19.80;;;14.60;;
18076;SDS011;9165;45.714;11.362;2022-12-16T10:39:45;19.90;;;12.87;;
18076;SDS011;9165;45.714;11.362;2022-12-16T10:42:32;21.67;;;15.10;;
18076;SDS011;9165;45.714;11.362;2022-12-16T10:45:20;24.50;;;16.50;;
18076;SDS011;9165;45.714;11.362;2022-12-16T10:48:22;23.37;;;15.33;;
18076;SDS011;9165;45.714;11.362;2022-12-16T10:51:08;23.07;;;15.63;;
18076;SDS011;9165;45.714;11.362;2022-12-16T10:53:55;21.30;;;14.33;;
18076;SDS011;9165;45.714;11.362;2022-12-16T10:56:48;21.40;;;14.83;;
18076;SDS011;9165;45.714;11.362;2022-12-16T10:59:35;20.57;;;14.57;;
18076;SDS011;9165;45.714;11.362;2022-12-16T11:02:20;22.83;;;15.53;;
18076;SDS011;9165;45.714;11.362;2022-12-16T11:05:27;27.60;;;18.93;;
18076;SDS011;9165;45.714;11.362;2022-12-16T11:08:22;26.10;;;17.33;;
18076;SDS011;9165;45.714;11.362;2022-12-16T11:11:11;26.73;;;18.17;;
18076;SDS011;9165;45.714;11.362;2022-12-16T11:13:59;23.73;;;16.43;;
18076;SDS011;9165;45.714;11.362;2022-12-16T11:17:01;22.53;;;15.60;;
18076;SDS011;9165;45.714;11.362;2022-12-16T11:20:11;27.77;;;18.10;;
18076;SDS011;9165;45.714;11.362;2022-12-16T11:26:08;24.37;;;17.47;;
18076;SDS011;9165;45.714;11.362;2022-12-16T11:29:07;32.20;;;22.67;;
18076;SDS011;9165;45.714;11.362;2022-12-16T11:31:55;29.77;;;19.17;;
18076;SDS011;9165;45.714;11.362;2022-12-16T11:34:39;25.60;;;17.13;;
18076;SDS011;9165;45.714;11.362;2022-12-16T11:37:24;24.57;;;18.50;;
18076;SDS011;9165;45.714;11.362;2022-12-16T11:40:14;37.30;;;22.10;;
18076;SDS011;9165;45.714;11.362;2022-12-16T11:43:01;26.97;;;16.93;;
18076;SDS011;9165;45.714;11.362;2022-12-16T11:45:50;27.27;;;17.97;;
18076;SDS011;9165;45.714;11.362;2022-12-16T11:48:37;23.83;;;16.27;;
18076;SDS011;9165;45.714;11.362;2022-12-16T11:51:21;21.10;;;14.30;;
18076;SDS011;9165;45.714;11.362;2022-12-16T11:54:08;19.60;;;13.37;;
18076;SDS011;9165;45.714;11.362;2022-12-16T11:56:56;20.50;;;14.57;;
18076;SDS011;9165;45.714;11.362;2022-12-16T11:59:44;22.17;;;15.83;;
18076;SDS011;9165;45.714;11.362;2022-12-16T12:02:31;20.97;;;15.10;;
18076;SDS011;9165;45.714;11.362;2022-12-16T12:05:16;19.70;;;14.70;;
18076;SDS011;9165;45.714;11.362;2022-12-16T12:08:01;20.63;;;15.00;;
18076;SDS011;9165;45.714;11.362;2022-12-16T12:10:54;22.10;;;15.30;;
18076;SDS011;9165;45.714;11.362;2022-12-16T12:13:45;25.70;;;15.60;;
18076;SDS011;9165;45.714;11.362;2022-12-16T12:16:35;24.40;;;16.73;;
18076;SDS011;9165;45.714;11.362;2022-12-16T12:19:22;22.40;;;14.53;;
18076;SDS011;9165;45.714;11.362;2022-12-16T12:22:31;20.20;;;14.17;;
18076;SDS011;9165;45.714;11.362;2022-12-16T12:25:20;20.70;;;13.50;;
18076;SDS011;9165;45.714;11.362;2022-12-16T12:28:06;20.90;;;14.00;;
18076;SDS011;9165;45.714;11.362;2022-12-16T12:30:54;16.00;;;12.73;;
18076;SDS011;9165;45.714;11.362;2022-12-16T12:33:47;19.07;;;12.87;;
18076;SDS011;9165;45.714;11.362;2022-12-16T12:36:48;13.87;;;11.50;;
18076;SDS011;9165;45.714;11.362;2022-12-16T12:39:35;17.23;;;11.17;;
18076;SDS011;9165;45.714;11.362;2022-12-16T12:42:23;14.10;;;11.27;;
18076;SDS011;9165;45.714;11.362;2022-12-16T12:48:21;42.60;;;21.70;;
18076;SDS011;9165;45.714;11.362;2022-12-16T12:51:09;50.50;;;26.20;;
18076;SDS011;9165;45.714;11.362;2022-12-16T12:54:01;49.20;;;24.60;;
18076;SDS011;9165;45.714;11.362;2022-12-16T12:56:50;37.50;;;23.27;;
18076;SDS011;9165;45.714;11.362;2022-12-16T12:59:40;46.73;;;25.83;;
18076;SDS011;9165;45.714;11.362;2022-12-16T13:02:41;49.37;;;28.03;;
18076;SDS011;9165;45.714;11.362;2022-12-16T13:05:27;37.03;;;23.43;;
18076;SDS011;9165;45.714;11.362;2022-12-16T13:08:39;33.00;;;21.50;;
18076;SDS011;9165;45.714;11.362;2022-12-16T13:11:26;31.90;;;20.67;;
18076;SDS011;9165;45.714;11.362;2022-12-16T13:17:13;29.83;;;19.00;;
18076;SDS011;9165;45.714;11.362;2022-12-16T13:23:21;25.00;;;17.90;;
18076;SDS011;9165;45.714;11.362;2022-12-16T13:26:06;26.70;;;17.83;;
18076;SDS011;9165;45.714;11.362;2022-12-16T13:29:01;25.83;;;17.70;;
18076;SDS011;9165;45.714;11.362;2022-12-16T13:31:58;22.70;;;14.13;;
18076;SDS011;9165;45.714;11.362;2022-12-16T13:34:42;23.87;;;15.23;;
18076;SDS011;9165;45.714;11.362;2022-12-16T13:37:26;23.17;;;13.33;;
18076;SDS011;9165;45.714;11.362;2022-12-16T13:40:12;19.07;;;13.47;;
18076;SDS011;9165;45.714;11.362;2022-12-16T13:43:00;21.43;;;14.37;;
18076;SDS011;9165;45.714;11.362;2022-12-16T13:48:54;19.37;;;13.77;;
18076;SDS011;9165;45.714;11.362;2022-12-16T13:51:58;21.63;;;14.70;;
18076;SDS011;9165;45.714;11.362;2022-12-16T13:54:40;22.43;;;14.17;;
18076;SDS011;9165;45.714;11.362;2022-12-16T13:57:27;22.17;;;15.13;;
18076;SDS011;9165;45.714;11.362;2022-12-16T14:00:17;23.83;;;15.47;;
18076;SDS011;9165;45.714;11.362;2022-12-16T14:03:02;23.23;;;15.93;;
18076;SDS011;9165;45.714;11.362;2022-12-16T14:05:50;34.17;;;17.10;;
18076;SDS011;9165;45.714;11.362;2022-12-16T14:08:35;26.77;;;16.40;;
18076;SDS011;9165;45.714;11.362;2022-12-16T14:11:21;20.83;;;14.90;;
18076;SDS011;9165;45.714;11.362;2022-12-16T14:14:07;23.13;;;15.43;;
18076;SDS011;9165;45.714;11.362;2022-12-16T14:16:54;30.83;;;17.60;;
18076;SDS011;9165;45.714;11.362;2022-12-16T14:19:45;22.33;;;15.43;;
18076;SDS011;9165;45.714;11.362;2022-12-16T14:22:38;23.83;;;15.10;;
18076;SDS011;9165;45.714;11.362;2022-12-16T14:25:24;23.40;;;14.73;;
18076;SDS011;9165;45.714;11.362;2022-12-16T14:28:13;26.10;;;16.23;;
18076;SDS011;9165;45.714;11.362;2022-12-16T14:31:03;14.87;;;10.57;;
18076;SDS011;9165;45.714;11.362;2022-12-16T14:33:52;18.90;;;11.53;;
18076;SDS011;9165;45.714;11.362;2022-12-16T14:36:37;18.47;;;11.47;;
18076;SDS011;9165;45.714;11.362;2022-12-16T14:39:22;17.70;;;11.90;;
18076;SDS011;9165;45.714;11.362;2022-12-16T14:42:13;17.97;;;11.73;;
18076;SDS011;9165;45.714;11.362;2022-12-16T14:44:58;19.87;;;12.67;;
18076;SDS011;9165;45.714;11.362;2022-12-16T14:47:42;17.90;;;11.17;;
18076;SDS011;9165;45.714;11.362;2022-12-16T14:50:29;20.40;;;13.27;;
18076;SDS011;9165;45.714;11.362;2022-12-16T14:53:14;18.53;;;12.43;;
18076;SDS011;9165;45.714;11.362;2022-12-16T14:56:08;21.63;;;13.70;;
18076;SDS011;9165;45.714;11.362;2022-12-16T14:59:05;21.93;;;14.30;;
18076;SDS011;9165;45.714;11.362;2022-12-16T15:01:51;20.00;;;12.93;;
18076;SDS011;9165;45.714;11.362;2022-12-16T15:04:37;19.87;;;13.33;;
18076;SDS011;9165;45.714;11.362;2022-12-16T15:07:23;16.80;;;12.23;;
18076;SDS011;9165;45.714;11.362;2022-12-16T15:10:10;21.30;;;13.07;;
18076;SDS011;9165;45.714;11.362;2022-12-16T15:12:56;18.00;;;12.77;;
18076;SDS011;9165;45.714;11.362;2022-12-16T15:15:40;23.47;;;13.53;;
18076;SDS011;9165;45.714;11.362;2022-12-16T15:18:26;16.23;;;11.47;;
18076;SDS011;9165;45.714;11.362;2022-12-16T15:21:11;21.23;;;14.43;;
18076;SDS011;9165;45.714;11.362;2022-12-16T15:23:57;22.27;;;14.30;;
18076;SDS011;9165;45.714;11.362;2022-12-16T15:26:41;26.47;;;17.57;;
18076;SDS011;9165;45.714;11.362;2022-12-16T15:29:30;27.10;;;17.80;;
18076;SDS011;9165;45.714;11.362;2022-12-16T15:32:21;29.90;;;19.43;;
18076;SDS011;9165;45.714;11.362;2022-12-16T15:35:09;30.03;;;20.20;;
18076;SDS011;9165;45.714;11.362;2022-12-16T15:37:53;34.13;;;21.90;;
18076;SDS011;9165;45.714;11.362;2022-12-16T15:40:50;31.47;;;21.73;;
18076;SDS011;9165;45.714;11.362;2022-12-16T15:43:37;35.90;;;25.57;;
18076;SDS011;9165;45.714;11.362;2022-12-16T15:46:23;41.57;;;26.30;;
18076;SDS011;9165;45.714;11.362;2022-12-16T15:49:13;39.80;;;26.80;;
18076;SDS011;9165;45.714;11.362;2022-12-16T15:52:00;29.67;;;21.57;;
18076;SDS011;9165;45.714;11.362;2022-12-16T15:54:48;33.77;;;23.93;;
18076;SDS011;9165;45.714;11.362;2022-12-16T15:57:35;34.13;;;22.90;;
18076;SDS011;9165;45.714;11.362;2022-12-16T16:00:20;38.10;;;25.10;;
18076;SDS011;9165;45.714;11.362;2022-12-16T16:03:13;36.90;;;24.73;;
18076;SDS011;9165;45.714;11.362;2022-12-16T16:05:59;39.10;;;25.67;;